Time;durP1;ratioP1;P1;durP2;ratioP2;P2;SDS_P1;SDS_P2;PMS_P1;PMS_P2;Temp;Humidity;BMP_temperature;BMP_pressure;BME280_temperature;BME280_humidity;BME280_pressure;Samples;Min_cycle;Max_cycle;Signal;HPM_P1;HPM_P2
2022/02/20 00:00:16;;;;;;;13.20;2.88;;;6.30;99.90;;;;;;5036173;28;20547;-55
2022/02/20 00:02:42;;;;;;;9.90;2.65;;;6.30;99.90;;;;;;5053435;28;20090;-56
2022/02/20 00:05:08;;;;;;;14.82;3.05;;;6.30;99.90;;;;;;5062620;28;20048;-56
2022/02/20 00:07:33;;;;;;;10.13;3.05;;;6.30;99.90;;;;;;5064287;28;20414;-54
2022/02/20 00:09:59;;;;;;;13.20;2.70;;;6.30;99.90;;;;;;5056930;28;20041;-55
2022/02/20 00:12:24;;;;;;;11.55;2.75;;;6.30;99.90;;;;;;5059692;28;20044;-54
2022/02/20 00:14:50;;;;;;;14.40;2.40;;;6.30;99.90;;;;;;5053422;28;20036;-56
2022/02/20 00:17:15;;;;;;;14.65;2.03;;;6.30;99.90;;;;;;5055386;28;20041;-56
2022/02/20 00:19:42;;;;;;;10.65;1.98;;;6.40;99.90;;;;;;5062873;28;20040;-55
2022/02/20 00:22:07;;;;;;;9.77;1.67;;;6.30;99.90;;;;;;5056453;28;20049;-56
2022/02/20 00:24:33;;;;;;;11.05;1.80;;;6.30;99.90;;;;;;5062927;28;20047;-54
2022/02/20 00:26:58;;;;;;;10.30;1.50;;;6.20;99.90;;;;;;5068209;28;20040;-55
2022/02/20 00:29:24;;;;;;;7.40;1.60;;;6.10;99.90;;;;;;5053186;28;20429;-56
2022/02/20 00:31:49;;;;;;;8.98;1.40;;;6.00;99.90;;;;;;5052940;28;20128;-56
2022/02/20 00:34:15;;;;;;;10.70;1.45;;;6.00;99.90;;;;;;5053172;28;20090;-55
2022/02/20 00:36:41;;;;;;;9.50;1.30;;;5.90;99.90;;;;;;5053136;28;20076;-56
2022/02/20 00:39:07;;;;;;;5.80;1.23;;;5.80;99.90;;;;;;5053231;28;20051;-55
2022/02/20 00:41:32;;;;;;;10.20;1.50;;;5.80;99.90;;;;;;5053089;28;20037;-56
2022/02/20 00:43:58;;;;;;;5.95;1.27;;;5.70;99.90;;;;;;5060134;28;20083;-56
2022/02/20 00:46:24;;;;;;;8.00;1.77;;;5.70;99.90;;;;;;5072484;28;20551;-55
2022/02/20 00:48:49;;;;;;;10.07;1.45;;;5.70;99.90;;;;;;5072464;28;20135;-54
2022/02/20 00:51:15;;;;;;;9.80;1.23;;;5.70;99.90;;;;;;5072817;28;20051;-56
2022/02/20 00:53:40;;;;;;;9.02;2.17;;;5.70;99.90;;;;;;5041333;28;20056;-55
2022/02/20 00:56:06;;;;;;;8.45;1.70;;;5.70;99.90;;;;;;5063431;28;20033;-55
2022/02/20 00:58:32;;;;;;;15.95;2.10;;;5.70;99.90;;;;;;5066667;28;20059;-53
2022/02/20 01:00:58;;;;;;;11.40;2.13;;;5.60;99.90;;;;;;5072397;28;20036;-56
2022/02/20 01:03:23;;;;;;;7.50;1.40;;;5.70;99.90;;;;;;5072950;28;20052;-55
2022/02/20 01:05:49;;;;;;;7.70;1.60;;;5.70;99.90;;;;;;5070859;28;20089;-53
2022/02/20 01:08:14;;;;;;;11.90;2.00;;;5.60;99.90;;;;;;5062394;28;20040;-54
2022/02/20 01:10:40;;;;;;;9.88;1.73;;;5.60;99.90;;;;;;5072379;28;20120;-56
2022/02/20 01:13:06;;;;;;;9.00;2.00;;;5.60;99.90;;;;;;5071559;28;20048;-55
2022/02/20 01:15:31;;;;;;;7.18;2.50;;;5.60;99.90;;;;;;5071102;28;20036;-55
2022/02/20 01:17:57;;;;;;;13.65;2.78;;;5.60;99.90;;;;;;5070762;28;20496;-56
2022/02/20 01:20:23;;;;;;;12.10;3.92;;;5.60;99.90;;;;;;5072452;28;20033;-56
2022/02/20 01:22:48;;;;;;;10.38;4.35;;;5.60;99.90;;;;;;5070515;28;20489;-56
2022/02/20 01:25:14;;;;;;;8.07;4.82;;;5.60;99.90;;;;;;5070550;28;20037;-56
2022/02/20 01:27:39;;;;;;;8.93;4.45;;;5.50;99.90;;;;;;5071169;28;20048;-56
2022/02/20 01:30:05;;;;;;;7.05;4.60;;;5.50;99.90;;;;;;5055070;28;20041;-55
2022/02/20 01:32:31;;;;;;;11.93;5.25;;;5.40;99.90;;;;;;5052121;28;20045;-56
2022/02/20 01:34:57;;;;;;;10.55;5.25;;;5.40;99.90;;;;;;5033992;28;20032;-55
2022/02/20 01:37:22;;;;;;;8.15;5.25;;;5.30;99.90;;;;;;5034141;28;20036;-54
2022/02/20 01:39:48;;;;;;;8.15;5.47;;;5.20;99.90;;;;;;5051929;28;20580;-56
2022/02/20 01:42:14;;;;;;;8.18;5.13;;;5.10;99.90;;;;;;5068737;28;20493;-56
2022/02/20 01:44:39;;;;;;;7.30;5.03;;;5.10;99.90;;;;;;5056625;28;20509;-56
2022/02/20 01:47:09;;;;;;;7.25;4.90;;;5.00;99.90;;;;;;5051815;28;20040;-56
2022/02/20 01:49:35;;;;;;;7.15;4.43;;;4.90;99.90;;;;;;5052043;28;20106;-56
2022/02/20 01:52:02;;;;;;;8.77;4.85;;;4.80;99.90;;;;;;5051903;28;20041;-54
2022/02/20 01:54:27;;;;;;;8.32;4.47;;;4.70;99.90;;;;;;5054291;28;20083;-52
2022/02/20 01:56:55;;;;;;;7.22;4.13;;;4.60;99.90;;;;;;5046938;28;20496;-55
2022/02/20 01:59:22;;;;;;;7.18;4.93;;;4.50;99.90;;;;;;5050731;28;20080;-55
2022/02/20 02:01:47;;;;;;;7.43;5.18;;;4.50;99.90;;;;;;5051606;28;20116;-55
2022/02/20 02:04:13;;;;;;;9.02;4.93;;;4.50;99.90;;;;;;5051630;28;20115;-56
2022/02/20 02:06:39;;;;;;;8.20;4.90;;;4.40;99.90;;;;;;5051497;28;20116;-55
2022/02/20 02:09:04;;;;;;;8.23;4.95;;;4.40;99.90;;;;;;5050180;28;20065;-55
2022/02/20 02:11:30;;;;;;;4.75;3.35;;;4.40;99.90;;;;;;5051709;28;20552;-55
2022/02/20 02:13:56;;;;;;;5.22;3.63;;;4.40;99.90;;;;;;5051262;28;20433;-55
2022/02/20 02:16:21;;;;;;;5.22;3.42;;;4.40;99.90;;;;;;5051461;28;20128;-56
2022/02/20 02:18:47;;;;;;;5.75;3.63;;;4.40;99.90;;;;;;5051570;28;20044;-56
2022/02/20 02:21:13;;;;;;;6.60;3.55;;;4.30;99.90;;;;;;5051447;28;20037;-55
2022/02/20 02:23:38;;;;;;;6.45;3.90;;;4.30;99.90;;;;;;5054552;28;20040;-52
2022/02/20 02:26:05;;;;;;;6.28;3.70;;;4.30;99.90;;;;;;5061358;28;20412;-55
2022/02/20 02:28:34;;;;;;;5.95;3.60;;;4.30;99.90;;;;;;5071098;28;20126;-54
2022/02/20 02:31:04;;;;;;;6.45;3.50;;;4.30;99.90;;;;;;5064150;28;20393;-55
2022/02/20 02:33:33;;;;;;;6.38;4.10;;;4.40;99.90;;;;;;5041828;28;20041;-56
2022/02/20 02:36:01;;;;;;;5.50;3.60;;;4.40;99.90;;;;;;5069191;28;20048;-56
2022/02/20 02:38:27;;;;;;;6.50;3.65;;;4.40;99.90;;;;;;5051247;28;20060;-56
2022/02/20 02:40:59;;;;;;;6.78;3.67;;;4.40;99.90;;;;;;5052087;28;20045;-55
2022/02/20 02:43:26;;;;;;;4.68;2.70;;;4.40;99.90;;;;;;5051065;28;20045;-54
2022/02/20 02:45:52;;;;;;;5.18;2.97;;;4.40;99.90;;;;;;5049905;28;20072;-52
2022/02/20 02:48:17;;;;;;;6.13;3.00;;;4.40;99.90;;;;;;5051106;28;20167;-55
2022/02/20 02:50:45;;;;;;;5.47;2.85;;;4.40;99.90;;;;;;5060280;28;20121;-53
2022/02/20 02:53:11;;;;;;;5.97;2.50;;;4.50;99.90;;;;;;5071008;28;20044;-52
2022/02/20 02:55:36;;;;;;;4.47;2.85;;;4.50;99.90;;;;;;5052052;28;20044;-55
2022/02/20 02:58:03;;;;;;;3.85;2.53;;;4.60;99.90;;;;;;5050927;28;20041;-55
2022/02/20 03:00:31;;;;;;;4.38;2.60;;;4.50;99.90;;;;;;5052140;28;20123;-55
2022/02/20 03:02:56;;;;;;;6.10;3.03;;;4.50;99.90;;;;;;5050931;28;20052;-53
2022/02/20 03:05:22;;;;;;;4.57;2.50;;;4.50;99.90;;;;;;5049945;28;20028;-54
2022/02/20 03:07:48;;;;;;;4.72;2.83;;;4.50;99.90;;;;;;5049776;28;20040;-54
2022/02/20 03:10:13;;;;;;;5.93;3.15;;;4.50;99.90;;;;;;5054700;28;20041;-57
2022/02/20 03:12:39;;;;;;;5.30;3.17;;;4.50;99.90;;;;;;5074556;28;20032;-56
2022/02/20 03:15:05;;;;;;;6.53;2.90;;;4.50;99.90;;;;;;5056458;28;20166;-56
2022/02/20 03:17:31;;;;;;;5.38;2.97;;;4.50;99.90;;;;;;5074348;28;20063;-53
2022/02/20 03:19:56;;;;;;;3.72;2.70;;;4.50;99.90;;;;;;5071596;28;20033;-55
2022/02/20 03:22:22;;;;;;;5.82;3.20;;;4.50;99.90;;;;;;5054673;28;20095;-54
2022/02/20 03:24:47;;;;;;;5.60;3.00;;;4.50;99.90;;;;;;5054316;28;20048;-55
2022/02/20 03:27:14;;;;;;;5.13;3.05;;;4.50;99.90;;;;;;5054359;28;20045;-54
2022/02/20 03:29:40;;;;;;;5.07;3.00;;;4.50;99.90;;;;;;5054680;28;20103;-53
2022/02/20 03:32:06;;;;;;;7.63;3.47;;;4.50;99.90;;;;;;5054475;28;20041;-54
2022/02/20 03:34:32;;;;;;;6.93;3.33;;;4.50;99.90;;;;;;5054215;28;20040;-55
2022/02/20 03:36:57;;;;;;;6.63;3.50;;;4.50;99.90;;;;;;5043374;28;20493;-50
2022/02/20 03:39:23;;;;;;;4.35;3.03;;;4.60;99.90;;;;;;5064356;28;20095;-50
2022/02/20 03:41:49;;;;;;;7.25;3.30;;;4.60;99.90;;;;;;5054453;28;20072;-52
2022/02/20 03:44:14;;;;;;;5.50;3.00;;;4.60;99.90;;;;;;5053377;28;20045;-53
2022/02/20 03:46:40;;;;;;;7.05;3.30;;;4.60;99.90;;;;;;5064522;28;20466;-50
2022/02/20 03:49:06;;;;;;;6.47;3.40;;;4.60;99.90;;;;;;5047931;28;20549;-50
2022/02/20 03:51:32;;;;;;;6.63;3.50;;;4.60;99.90;;;;;;5054658;28;20120;-50
2022/02/20 03:53:58;;;;;;;5.90;3.10;;;4.60;99.90;;;;;;5053730;28;20095;-49
2022/02/20 03:56:23;;;;;;;4.88;2.92;;;4.60;99.90;;;;;;5054211;28;20505;-50
2022/02/20 03:58:49;;;;;;;6.38;3.15;;;4.60;99.90;;;;;;5054207;28;20041;-51
2022/02/20 04:01:15;;;;;;;7.55;2.90;;;4.60;99.90;;;;;;5054665;28;20053;-50
2022/02/20 04:03:41;;;;;;;5.00;2.30;;;4.60;99.90;;;;;;5064559;28;20045;-50
2022/02/20 04:06:07;;;;;;;3.85;2.35;;;4.70;99.90;;;;;;5055032;28;20056;-50
2022/02/20 04:08:32;;;;;;;6.07;2.30;;;4.70;99.90;;;;;;5053477;28;20044;-50
2022/02/20 04:10:59;;;;;;;6.32;2.25;;;4.70;99.90;;;;;;5053926;28;20464;-50
2022/02/20 04:13:25;;;;;;;3.75;2.10;;;4.70;99.90;;;;;;5053795;28;20047;-49
2022/02/20 04:15:51;;;;;;;5.18;1.90;;;4.70;99.90;;;;;;5062078;28;20080;-50
2022/02/20 04:18:16;;;;;;;5.95;1.90;;;4.70;99.90;;;;;;5072650;28;20489;-50
2022/02/20 04:20:42;;;;;;;3.50;1.63;;;4.70;99.90;;;;;;5074073;28;20032;-50
2022/02/20 04:23:07;;;;;;;4.53;1.67;;;4.70;99.90;;;;;;5071723;28;20071;-53
2022/02/20 04:25:33;;;;;;;3.97;1.90;;;4.70;99.90;;;;;;5053616;28;20041;-50
2022/02/20 04:27:58;;;;;;;3.45;1.67;;;4.80;99.90;;;;;;5053392;28;20070;-50
2022/02/20 04:30:25;;;;;;;5.60;1.65;;;4.80;99.90;;;;;;5053499;28;20501;-50
2022/02/20 04:32:51;;;;;;;2.83;1.55;;;4.70;99.90;;;;;;5056384;28;20040;-50
2022/02/20 04:35:17;;;;;;;7.65;1.70;;;4.70;99.90;;;;;;5058857;28;20413;-50
2022/02/20 04:37:42;;;;;;;5.22;1.70;;;4.70;99.90;;;;;;5052697;28;20505;-50
2022/02/20 04:40:09;;;;;;;4.95;2.00;;;4.70;99.90;;;;;;5053284;28;20498;-51
2022/02/20 04:42:35;;;;;;;2.85;1.60;;;4.70;99.90;;;;;;5053229;28;20045;-52
2022/02/20 04:45:01;;;;;;;4.82;2.10;;;4.70;99.90;;;;;;5053373;28;20044;-50
2022/02/20 04:47:28;;;;;;;5.97;2.30;;;4.70;99.90;;;;;;5052779;28;20045;-53
2022/02/20 04:49:53;;;;;;;4.13;1.92;;;4.70;99.90;;;;;;5062115;28;20603;-50
2022/02/20 04:52:20;;;;;;;5.22;2.10;;;4.70;99.90;;;;;;5072587;28;20041;-50
2022/02/20 04:54:45;;;;;;;5.43;1.90;;;4.70;99.90;;;;;;5072937;28;20037;-50
2022/02/20 04:57:11;;;;;;;3.42;1.92;;;4.80;99.90;;;;;;5072562;28;20043;-51
2022/02/20 04:59:36;;;;;;;6.15;2.05;;;4.80;99.90;;;;;;5072044;28;20119;-51
2022/02/20 05:02:02;;;;;;;4.28;1.85;;;4.70;99.90;;;;;;5071443;28;20116;-51
2022/02/20 05:04:28;;;;;;;2.78;1.75;;;4.80;99.90;;;;;;5070927;28;20041;-50
2022/02/20 05:06:53;;;;;;;6.15;2.10;;;4.70;99.90;;;;;;5072023;28;20123;-49
2022/02/20 05:09:19;;;;;;;7.57;3.45;;;4.70;99.90;;;;;;5072220;28;20032;-52
2022/02/20 05:11:44;;;;;;;6.43;1.80;;;4.80;99.90;;;;;;5061193;28;20036;-50
2022/02/20 05:14:10;;;;;;;3.80;1.80;;;4.80;99.90;;;;;;5052638;28;20041;-50
2022/02/20 05:16:35;;;;;;;6.70;2.13;;;4.80;99.90;;;;;;5052332;28;20115;-50
2022/02/20 05:19:01;;;;;;;4.35;2.05;;;4.80;99.90;;;;;;5054351;28;20444;-50
2022/02/20 05:21:26;;;;;;;3.95;1.90;;;4.80;99.90;;;;;;5071982;28;20060;-50
2022/02/20 05:23:52;;;;;;;7.88;1.63;;;5.40;99.90;;;;;;5072298;28;20120;-50
2022/02/20 05:26:18;;;;;;;5.57;1.88;;;4.80;99.90;;;;;;5072193;28;20115;-50
2022/02/20 05:28:43;;;;;;;3.60;1.58;;;4.80;99.90;;;;;;5071340;28;20130;-49
2022/02/20 05:31:09;;;;;;;5.70;2.08;;;4.80;99.90;;;;;;5072242;28;20097;-50
2022/02/20 05:33:35;;;;;;;7.55;2.42;;;4.80;99.90;;;;;;5071892;28;20127;-50
2022/02/20 05:36:01;;;;;;;7.10;2.15;;;4.80;99.90;;;;;;5071069;28;20595;-51
2022/02/20 05:38:26;;;;;;;4.60;1.90;;;4.80;99.90;;;;;;5072111;28;20131;-50
2022/02/20 05:40:52;;;;;;;8.68;2.17;;;4.80;99.90;;;;;;5071971;28;20127;-53
2022/02/20 05:43:18;;;;;;;6.68;2.10;;;4.80;99.90;;;;;;5069935;28;20193;-50
2022/02/20 05:45:43;;;;;;;4.85;1.83;;;4.90;99.90;;;;;;5043070;28;20099;-52
2022/02/20 05:48:09;;;;;;;8.85;2.50;;;4.90;99.90;;;;;;5051631;28;20033;-49
2022/02/20 05:50:34;;;;;;;9.98;2.15;;;4.90;99.90;;;;;;5051705;28;20040;-50
2022/02/20 05:53:00;;;;;;;6.45;2.78;;;4.90;99.90;;;;;;5051931;28;20481;-53
2022/02/20 05:55:26;;;;;;;6.40;2.33;;;4.90;99.90;;;;;;5051828;28;20057;-50
2022/02/20 05:57:53;;;;;;;5.45;2.30;;;4.90;99.90;;;;;;5051847;28;20037;-50
2022/02/20 06:00:22;;;;;;;6.45;2.30;;;5.00;99.90;;;;;;5064603;28;20048;-50
2022/02/20 06:02:48;;;;;;;5.38;2.58;;;5.00;99.90;;;;;;5071223;28;20492;-50
2022/02/20 06:05:13;;;;;;;7.20;3.00;;;5.00;99.90;;;;;;5071349;28;20040;-50
2022/02/20 06:07:39;;;;;;;11.13;3.50;;;5.00;99.90;;;;;;5071546;28;20036;-50
2022/02/20 06:10:07;;;;;;;8.73;3.13;;;4.90;99.90;;;;;;5071573;28;20040;-53
2022/02/20 06:12:33;;;;;;;8.80;3.17;;;5.00;99.90;;;;;;5069776;28;20663;-50
2022/02/20 06:14:58;;;;;;;10.75;3.00;;;4.90;99.90;;;;;;5048956;28;20065;-50
2022/02/20 06:17:24;;;;;;;9.52;3.28;;;4.80;99.90;;;;;;5051264;28;20124;-50
2022/02/20 06:19:50;;;;;;;8.20;2.95;;;4.80;99.90;;;;;;5051187;28;20236;-51
2022/02/20 06:22:16;;;;;;;9.38;3.20;;;4.80;99.90;;;;;;5049962;28;20493;-50
2022/02/20 06:24:41;;;;;;;11.55;3.10;;;4.70;99.90;;;;;;5051472;28;20044;-50
2022/02/20 06:27:07;;;;;;;9.20;2.80;;;4.80;99.90;;;;;;5051458;28;20080;-51
2022/02/20 06:29:33;;;;;;;10.63;3.10;;;4.90;99.90;;;;;;5053951;28;20300;-51
2022/02/20 06:31:59;;;;;;;8.63;2.65;;;4.80;99.90;;;;;;5071301;28;20032;-50
2022/02/20 06:34:25;;;;;;;7.25;2.70;;;4.80;99.90;;;;;;5070918;28;20043;-50
2022/02/20 06:36:50;;;;;;;8.32;3.03;;;4.80;99.90;;;;;;5071123;28;20036;-50
2022/02/20 06:39:17;;;;;;;9.88;2.75;;;4.80;99.90;;;;;;5071506;28;20045;-50
2022/02/20 06:41:43;;;;;;;9.75;3.20;;;4.80;99.90;;;;;;5022960;28;20040;-50
2022/02/20 06:44:08;;;;;;;8.52;2.88;;;4.80;99.90;;;;;;5033704;28;20041;-50
2022/02/20 06:46:35;;;;;;;9.80;3.47;;;4.80;99.90;;;;;;5053476;28;20052;-52
2022/02/20 06:49:01;;;;;;;11.77;3.50;;;4.80;99.90;;;;;;5053761;28;20525;-51
2022/02/20 06:51:28;;;;;;;7.18;3.25;;;4.80;99.90;;;;;;5056487;28;20041;-50
2022/02/20 06:53:54;;;;;;;6.47;3.05;;;4.80;99.90;;;;;;5047367;28;20051;-49
2022/02/20 06:56:20;;;;;;;9.10;3.50;;;4.80;99.90;;;;;;5063885;28;20040;-53
2022/02/20 06:58:46;;;;;;;9.15;3.75;;;4.80;99.90;;;;;;5060584;28;20459;-50
2022/02/20 07:01:11;;;;;;;9.63;3.60;;;4.80;99.90;;;;;;5074258;28;20080;-52
2022/02/20 07:03:37;;;;;;;10.98;4.10;;;4.80;99.90;;;;;;5074649;28;20040;-50
2022/02/20 07:06:04;;;;;;;10.68;4.00;;;4.80;99.90;;;;;;5074341;28;20634;-50
2022/02/20 07:08:30;;;;;;;15.88;4.95;;;4.70;99.90;;;;;;5072866;28;20041;-50
2022/02/20 07:10:59;;;;;;;13.60;5.00;;;4.70;99.90;;;;;;5067988;28;20126;-50
2022/02/20 07:13:25;;;;;;;14.45;5.53;;;4.70;99.90;;;;;;5054729;28;20435;-53
2022/02/20 07:15:50;;;;;;;11.68;5.55;;;4.80;99.90;;;;;;5054578;28;20079;-51
2022/02/20 07:18:16;;;;;;;12.13;5.97;;;4.70;99.90;;;;;;5054335;28;20182;-50
2022/02/20 07:20:42;;;;;;;14.02;6.40;;;4.80;99.90;;;;;;5064903;28;20044;-50
2022/02/20 07:23:09;;;;;;;15.70;6.90;;;4.80;99.90;;;;;;5073618;28;20043;-49
2022/02/20 07:25:34;;;;;;;10.52;6.07;;;4.80;99.90;;;;;;5067036;28;20068;-51
2022/02/20 07:28:00;;;;;;;12.00;6.82;;;4.90;99.90;;;;;;5064772;28;20079;-49
2022/02/20 07:30:28;;;;;;;12.43;7.03;;;4.90;99.90;;;;;;5063923;28;20044;-49
2022/02/20 07:32:55;;;;;;;16.45;7.32;;;4.90;99.90;;;;;;5054790;28;20041;-50
2022/02/20 07:35:20;;;;;;;17.50;7.30;;;5.00;99.90;;;;;;5054110;28;20040;-52
2022/02/20 07:37:46;;;;;;;13.05;6.68;;;4.90;99.90;;;;;;5061926;28;20423;-50
2022/02/20 07:40:14;;;;;;;18.73;7.75;;;5.00;99.90;;;;;;5059632;28;20040;-53
2022/02/20 07:42:40;;;;;;;14.40;6.57;;;5.00;99.90;;;;;;5068004;28;20036;-54
2022/02/20 07:45:06;;;;;;;14.77;7.53;;;5.10;99.90;;;;;;5055877;28;20090;-49
2022/02/20 07:47:32;;;;;;;16.42;7.40;;;5.10;99.90;;;;;;5060257;28;20489;-52
2022/02/20 07:49:57;;;;;;;18.15;7.75;;;5.10;99.90;;;;;;5058635;28;20043;-50
2022/02/20 07:52:25;;;;;;;15.00;7.32;;;5.20;99.90;;;;;;5065331;28;20045;-50
2022/02/20 07:54:51;;;;;;;15.38;7.15;;;5.20;99.90;;;;;;5057516;28;20045;-50
2022/02/20 07:57:16;;;;;;;21.20;8.23;;;5.20;99.90;;;;;;5052875;28;20126;-50
2022/02/20 07:59:42;;;;;;;14.98;8.30;;;5.30;99.90;;;;;;5053843;28;20076;-49
2022/02/20 08:02:07;;;;;;;14.20;7.65;;;5.30;99.90;;;;;;5054160;28;20036;-53
2022/02/20 08:04:33;;;;;;;15.68;8.68;;;5.40;99.90;;;;;;5066384;28;20163;-53
2022/02/20 08:06:59;;;;;;;14.73;7.05;;;5.40;99.90;;;;;;5058583;28;20420;-53
2022/02/20 08:09:25;;;;;;;19.60;8.10;;;5.40;99.90;;;;;;5064939;28;20127;-53
2022/02/20 08:11:51;;;;;;;18.00;8.32;;;5.40;99.90;;;;;;5057633;28;20397;-53
2022/02/20 08:14:16;;;;;;;18.20;7.78;;;5.50;99.90;;;;;;5053799;28;20087;-54
2022/02/20 08:16:42;;;;;;;12.73;7.00;;;5.60;99.90;;;;;;5073204;28;20036;-53
2022/02/20 08:19:08;;;;;;;16.40;7.88;;;5.60;99.90;;;;;;5066526;28;20060;-54
2022/02/20 08:21:33;;;;;;;16.85;7.30;;;5.70;99.90;;;;;;5066445;28;20049;-50
2022/02/20 08:23:59;;;;;;;15.80;6.70;;;5.70;99.90;;;;;;5067796;28;20076;-52
2022/02/20 08:26:24;;;;;;;13.95;6.40;;;5.90;99.90;;;;;;5053287;28;20036;-50
2022/02/20 08:28:50;;;;;;;16.40;6.75;;;5.90;99.90;;;;;;5065361;28;20044;-49
2022/02/20 08:31:15;;;;;;;11.80;6.07;;;6.10;99.90;;;;;;5073423;28;20040;-51
2022/02/20 08:33:41;;;;;;;13.52;6.25;;;6.10;99.90;;;;;;5073314;28;20404;-53
2022/02/20 08:36:09;;;;;;;15.23;6.45;;;6.20;99.90;;;;;;5068182;28;20417;-52
2022/02/20 08:38:36;;;;;;;9.70;5.80;;;6.30;99.90;;;;;;5053299;28;20041;-50
2022/02/20 08:41:02;;;;;;;11.32;5.45;;;6.40;99.90;;;;;;5053128;28;20040;-50
2022/02/20 08:43:28;;;;;;;10.95;5.28;;;6.50;99.90;;;;;;5052890;28;20095;-54
2022/02/20 08:45:53;;;;;;;10.18;4.85;;;6.60;99.90;;;;;;5065876;28;20044;-55
2022/02/20 08:48:19;;;;;;;8.77;4.40;;;6.80;99.90;;;;;;5072481;28;20036;-50
2022/02/20 08:50:45;;;;;;;10.70;4.82;;;6.90;99.90;;;;;;5070008;28;20043;-56
2022/02/20 08:53:11;;;;;;;12.02;4.90;;;7.00;99.90;;;;;;5062987;28;20041;-53
2022/02/20 08:55:37;;;;;;;8.85;5.15;;;7.10;99.90;;;;;;5060042;28;20492;-51
2022/02/20 08:58:03;;;;;;;11.38;4.80;;;7.20;99.90;;;;;;5060347;28;20033;-54
2022/02/20 09:00:29;;;;;;;9.68;4.70;;;7.30;99.90;;;;;;5054911;28;20104;-54
2022/02/20 09:02:55;;;;;;;8.57;4.50;;;7.40;99.90;;;;;;5058686;28;20060;-56
2022/02/20 09:05:21;;;;;;;9.15;4.70;;;7.50;99.90;;;;;;5062879;28;20497;-56
2022/02/20 09:07:46;;;;;;;9.18;4.47;;;7.50;99.90;;;;;;5056061;28;20108;-56
2022/02/20 09:10:12;;;;;;;9.68;4.38;;;7.60;99.90;;;;;;5066687;28;20041;-55
2022/02/20 09:12:38;;;;;;;10.32;4.95;;;7.70;99.90;;;;;;5058323;28;20393;-56
2022/02/20 09:15:04;;;;;;;15.98;4.63;;;7.80;99.90;;;;;;5059453;28;20123;-56
2022/02/20 09:17:30;;;;;;;14.63;5.47;;;7.90;99.90;;;;;;5060903;28;20044;-51
2022/02/20 09:19:56;;;;;;;13.00;4.90;;;8.00;99.90;;;;;;5058749;28;20527;-51
2022/02/20 09:22:21;;;;;;;13.00;5.28;;;8.00;99.90;;;;;;5050449;28;20413;-56
2022/02/20 09:24:47;;;;;;;15.30;5.47;;;8.10;99.90;;;;;;5059415;28;20408;-54
2022/02/20 09:27:13;;;;;;;19.13;5.50;;;8.20;99.90;;;;;;5052003;28;20489;-54
2022/02/20 09:29:38;;;;;;;20.48;4.88;;;8.30;99.90;;;;;;5052244;28;20039;-54
2022/02/20 09:32:04;;;;;;;19.83;4.88;;;8.40;99.90;;;;;;5052359;28;20037;-53
2022/02/20 09:34:30;;;;;;;19.05;5.28;;;8.40;99.90;;;;;;5052001;28;20029;-50
2022/02/20 09:36:56;;;;;;;23.58;5.15;;;8.50;99.90;;;;;;5052377;28;20047;-54
2022/02/20 09:39:21;;;;;;;21.65;4.82;;;8.60;99.90;;;;;;5052030;28;20504;-53
2022/02/20 09:41:47;;;;;;;15.63;4.43;;;8.60;99.90;;;;;;5051847;28;20045;-54
2022/02/20 09:44:12;;;;;;;24.50;5.28;;;8.60;99.90;;;;;;5051969;28;20040;-51
2022/02/20 09:46:43;;;;;;;34.72;5.53;;;8.70;99.90;;;;;;5051775;28;20559;-51
2022/02/20 09:49:09;;;;;;;36.50;6.57;;;8.80;99.90;;;;;;5051792;28;20094;-53
2022/02/20 09:51:36;;;;;;;28.75;6.63;;;8.70;99.90;;;;;;5051804;28;20045;-53
2022/02/20 09:54:01;;;;;;;29.20;5.47;;;8.80;99.90;;;;;;5053853;28;20443;-53
2022/02/20 09:56:27;;;;;;;31.25;5.38;;;8.80;99.90;;;;;;5049922;28;20040;-52
2022/02/20 09:58:55;;;;;;;34.50;6.10;;;8.80;99.90;;;;;;5051265;28;20071;-54
2022/02/20 10:01:22;;;;;;;37.53;5.65;;;8.90;99.90;;;;;;5056410;28;20076;-54
2022/02/20 10:03:48;;;;;;;38.45;5.90;;;8.90;99.90;;;;;;5031963;28;20041;-54
2022/02/20 10:06:23;;;;;;;34.17;6.60;;;9.00;99.90;;;;;;5048017;28;20037;-53
2022/02/20 10:08:51;;;;;;;40.45;5.65;;;9.00;99.90;;;;;;5049633;28;20076;-51
2022/02/20 10:11:25;;;;;;;42.63;6.38;;;9.00;99.90;;;;;;5055494;28;20107;-54
2022/02/20 10:13:52;;;;;;;38.30;6.93;;;9.10;99.90;;;;;;5067231;28;20044;-54
2022/02/20 10:16:23;;;;;;;44.53;6.55;;;9.10;99.90;;;;;;5069986;28;20127;-53
2022/02/20 10:18:50;;;;;;;37.78;6.15;;;9.20;99.90;;;;;;5060244;28;20466;-54
2022/02/20 10:21:20;;;;;;;42.92;8.07;;;9.20;99.90;;;;;;5062490;28;20033;-54
2022/02/20 10:23:47;;;;;;;34.88;6.40;;;9.20;99.90;;;;;;5065800;28;20048;-50
2022/02/20 10:26:20;;;;;;;43.20;6.07;;;9.20;99.90;;;;;;5062510;28;20037;-53
2022/02/20 10:28:59;;;;;;;53.35;6.35;;;9.30;99.90;;;;;;5056717;28;20056;-53
2022/02/20 10:31:42;;;;;;;50.25;6.85;;;9.30;99.90;;;;;;5063108;28;20040;-52
2022/02/20 10:34:10;;;;;;;43.58;6.82;;;9.30;99.90;;;;;;5056916;28;20508;-53
2022/02/20 10:36:55;;;;;;;49.22;8.27;;;9.40;99.90;;;;;;5063225;28;20072;-54
2022/02/20 10:39:34;;;;;;;40.30;7.10;;;9.40;99.90;;;;;;5057345;28;20501;-53
2022/02/20 10:42:13;;;;;;;44.40;7.10;;;9.40;99.90;;;;;;5057597;28;20044;-50
2022/02/20 10:45:00;;;;;;;50.97;7.03;;;9.40;99.90;;;;;;5053254;28;20045;-53
2022/02/20 10:47:27;;;;;;;42.53;5.88;;;9.40;99.90;;;;;;5052809;28;20436;-54
2022/02/20 10:49:54;;;;;;;41.25;6.97;;;9.40;99.90;;;;;;5050785;28;20369;-51
2022/02/20 10:52:32;;;;;;;39.58;6.78;;;9.40;99.90;;;;;;5050883;28;20120;-54
2022/02/20 10:55:01;;;;;;;42.33;6.57;;;9.50;99.90;;;;;;5065657;28;20033;-54
2022/02/20 10:57:35;;;;;;;41.45;6.45;;;9.60;99.90;;;;;;5054127;28;20073;-54
2022/02/20 11:00:21;;;;;;;46.47;6.57;;;9.60;99.90;;;;;;5056765;28;20109;-54
2022/02/20 11:03:11;;;;;;;43.05;6.43;;;9.60;99.90;;;;;;5052592;28;20045;-53
2022/02/20 11:05:39;;;;;;;45.08;6.50;;;9.60;99.90;;;;;;5059584;28;20053;-52
2022/02/20 11:08:06;;;;;;;43.42;7.07;;;9.60;99.90;;;;;;5061327;28;20041;-52
2022/02/20 11:10:33;;;;;;;47.17;6.20;;;9.60;99.90;;;;;;5057183;28;20455;-51
2022/02/20 11:13:00;;;;;;;42.85;6.85;;;9.60;99.90;;;;;;5061187;28;20143;-52
2022/02/20 11:15:26;;;;;;;30.30;5.68;;;9.60;99.90;;;;;;5050756;28;20124;-56
2022/02/20 11:17:55;;;;;;;42.17;6.88;;;9.60;99.90;;;;;;5053463;28;20087;-54
2022/02/20 11:20:22;;;;;;;37.05;6.20;;;9.60;99.90;;;;;;5068074;28;20078;-53
2022/02/20 11:22:51;;;;;;;47.28;7.53;;;9.70;99.90;;;;;;5062594;28;20098;-52
2022/02/20 11:25:19;;;;;;;42.28;7.18;;;9.70;99.90;;;;;;5069557;28;20495;-52
2022/02/20 11:27:46;;;;;;;44.45;7.72;;;9.70;99.90;;;;;;5070742;28;20056;-54
2022/02/20 11:30:12;;;;;;;44.17;7.35;;;9.70;99.90;;;;;;5065335;28;20037;-52
2022/02/20 11:32:41;;;;;;;42.33;6.80;;;9.70;99.90;;;;;;5063433;28;20111;-54
2022/02/20 11:35:15;;;;;;;44.55;7.00;;;9.70;99.90;;;;;;5067620;28;20040;-54
2022/02/20 11:37:51;;;;;;;40.88;6.68;;;9.70;99.90;;;;;;5062106;28;20036;-54
2022/02/20 11:40:18;;;;;;;48.55;7.18;;;9.80;99.90;;;;;;5067004;28;20044;-52
2022/02/20 11:43:13;;;;;;;38.38;7.03;;;9.80;99.90;;;;;;5074016;28;20524;-51
2022/02/20 11:46:05;;;;;;;44.40;6.07;;;9.70;99.90;;;;;;5051806;28;20048;-52
2022/02/20 11:48:31;;;;;;;32.13;6.07;;;9.70;99.90;;;;;;5064928;28;20524;-55
2022/02/20 11:51:15;;;;;;;42.10;6.82;;;9.70;99.90;;;;;;5073915;28;20040;-54
2022/02/20 11:53:41;;;;;;;35.72;6.75;;;9.70;99.90;;;;;;5054810;28;20476;-54
2022/02/20 11:56:09;;;;;;;41.22;6.63;;;9.70;99.90;;;;;;5058263;28;20039;-54
2022/02/20 11:58:34;;;;;;;35.28;6.30;;;9.70;99.90;;;;;;5064008;28;20037;-52
2022/02/20 12:01:02;;;;;;;37.08;6.47;;;9.70;99.90;;;;;;5061901;28;20067;-54
2022/02/20 12:03:31;;;;;;;40.67;5.85;;;9.70;99.90;;;;;;5067906;28;20044;-55
2022/02/20 12:06:17;;;;;;;37.13;5.93;;;9.70;99.90;;;;;;5073999;28;20040;-53
2022/02/20 12:08:56;;;;;;;33.40;5.90;;;9.60;99.90;;;;;;5065349;28;20076;-51
2022/02/20 12:11:41;;;;;;;38.05;6.93;;;9.70;99.90;;;;;;5062412;28;20137;-55
2022/02/20 12:14:16;;;;;;;37.92;7.18;;;9.70;99.90;;;;;;5059964;28;20123;-52
2022/02/20 12:16:48;;;;;;;31.98;5.55;;;9.70;99.90;;;;;;5051670;28;20036;-52
2022/02/20 12:19:33;;;;;;;38.97;5.88;;;9.60;99.90;;;;;;5068490;28;20035;-52
2022/02/20 12:22:08;;;;;;;35.80;6.15;;;9.60;99.90;;;;;;5065122;28;20041;-51
2022/02/20 12:24:56;;;;;;;33.15;6.03;;;9.70;99.90;;;;;;5064748;28;20051;-52
2022/02/20 12:27:24;;;;;;;37.83;6.72;;;9.70;99.90;;;;;;5053918;28;20099;-51
2022/02/20 12:29:55;;;;;;;32.10;5.88;;;9.70;99.90;;;;;;5062235;28;20041;-52
2022/02/20 12:32:26;;;;;;;31.67;5.50;;;9.70;99.90;;;;;;5073360;28;20542;-51
2022/02/20 12:34:53;;;;;;;42.55;5.68;;;9.70;99.90;;;;;;5071795;28;20492;-52
2022/02/20 12:37:22;;;;;;;35.85;6.15;;;9.70;99.90;;;;;;5073213;28;20076;-52
2022/02/20 12:39:54;;;;;;;34.63;6.85;;;9.60;99.90;;;;;;5073351;28;20052;-51
2022/02/20 12:42:19;;;;;;;31.90;6.38;;;9.70;99.90;;;;;;5072976;28;20044;-55
2022/02/20 12:44:45;;;;;;;35.15;6.10;;;9.70;99.90;;;;;;5051590;28;20040;-54
2022/02/20 12:47:11;;;;;;;39.20;6.30;;;9.70;99.90;;;;;;5052824;28;20072;-53
2022/02/20 12:49:38;;;;;;;38.15;6.35;;;9.70;99.90;;;;;;5060285;28;20036;-53
2022/02/20 12:52:05;;;;;;;37.97;6.32;;;9.70;99.90;;;;;;5064610;28;20047;-51